sensor_id;sensor_type;location;lat;lon;timestamp;temperature;humidity
10133;DHT22;5106;50.926;7.080;2022-12-18T00:01:48;-5.70;87.60
10133;DHT22;5106;50.926;7.080;2022-12-18T00:04:22;-5.70;87.70
10133;DHT22;5106;50.926;7.080;2022-12-18T00:06:48;-5.70;87.70
10133;DHT22;5106;50.926;7.080;2022-12-18T00:09:14;-5.70;87.70
10133;DHT22;5106;50.926;7.080;2022-12-18T00:11:40;-5.70;87.70
10133;DHT22;5106;50.926;7.080;2022-12-18T00:14:06;-5.70;87.70
10133;DHT22;5106;50.926;7.080;2022-12-18T00:16:31;-5.70;87.70
10133;DHT22;5106;50.926;7.080;2022-12-18T00:18:59;-5.70;87.70
10133;DHT22;5106;50.926;7.080;2022-12-18T00:21:26;-5.70;87.80
10133;DHT22;5106;50.926;7.080;2022-12-18T00:23:52;-5.70;87.80
10133;DHT22;5106;50.926;7.080;2022-12-18T00:26:21;-5.70;87.80
10133;DHT22;5106;50.926;7.080;2022-12-18T00:28:47;-5.60;87.80
10133;DHT22;5106;50.926;7.080;2022-12-18T00:31:16;-5.60;87.80
10133;DHT22;5106;50.926;7.080;2022-12-18T00:33:42;-5.60;87.80
10133;DHT22;5106;50.926;7.080;2022-12-18T00:36:15;-5.60;87.90
10133;DHT22;5106;50.926;7.080;2022-12-18T00:38:42;-5.60;87.90
10133;DHT22;5106;50.926;7.080;2022-12-18T00:41:10;-5.60;87.90
10133;DHT22;5106;50.926;7.080;2022-12-18T00:43:36;-5.60;87.80
10133;DHT22;5106;50.926;7.080;2022-12-18T00:46:02;-5.70;87.80
10133;DHT22;5106;50.926;7.080;2022-12-18T00:48:28;-5.70;87.70
10133;DHT22;5106;50.926;7.080;2022-12-18T00:50:53;-5.70;87.70
10133;DHT22;5106;50.926;7.080;2022-12-18T00:53:19;-5.70;87.60
10133;DHT22;5106;50.926;7.080;2022-12-18T00:55:45;-5.70;87.60
10133;DHT22;5106;50.926;7.080;2022-12-18T00:58:11;-5.70;87.60
10133;DHT22;5106;50.926;7.080;2022-12-18T01:00:37;-5.70;87.60
10133;DHT22;5106;50.926;7.080;2022-12-18T01:03:04;-5.70;87.70
10133;DHT22;5106;50.926;7.080;2022-12-18T01:05:30;-5.70;87.60
10133;DHT22;5106;50.926;7.080;2022-12-18T01:07:55;-5.70;87.70
10133;DHT22;5106;50.926;7.080;2022-12-18T01:10:21;-5.70;87.70
10133;DHT22;5106;50.926;7.080;2022-12-18T01:12:47;-5.70;87.60
10133;DHT22;5106;50.926;7.080;2022-12-18T01:15:14;-5.70;87.60
10133;DHT22;5106;50.926;7.080;2022-12-18T01:17:40;-5.70;87.60
10133;DHT22;5106;50.926;7.080;2022-12-18T01:20:06;-5.70;87.60
10133;DHT22;5106;50.926;7.080;2022-12-18T01:22:33;-5.70;87.60
10133;DHT22;5106;50.926;7.080;2022-12-18T01:24:58;-5.80;87.50
10133;DHT22;5106;50.926;7.080;2022-12-18T01:27:24;-5.80;87.50
10133;DHT22;5106;50.926;7.080;2022-12-18T01:29:49;-5.80;87.50
10133;DHT22;5106;50.926;7.080;2022-12-18T01:32:15;-5.80;87.60
10133;DHT22;5106;50.926;7.080;2022-12-18T01:34:40;-5.80;87.60
10133;DHT22;5106;50.926;7.080;2022-12-18T01:37:06;-5.80;87.50
10133;DHT22;5106;50.926;7.080;2022-12-18T01:39:32;-5.80;87.50
10133;DHT22;5106;50.926;7.080;2022-12-18T01:42:18;-5.80;87.40
10133;DHT22;5106;50.926;7.080;2022-12-18T01:45:00;-5.80;87.30
10133;DHT22;5106;50.926;7.080;2022-12-18T01:50:17;-5.80;87.40
10133;DHT22;5106;50.926;7.080;2022-12-18T01:52:47;-5.80;87.40
10133;DHT22;5106;50.926;7.080;2022-12-18T01:55:15;-5.80;87.40
10133;DHT22;5106;50.926;7.080;2022-12-18T01:57:42;-5.80;87.40
10133;DHT22;5106;50.926;7.080;2022-12-18T02:00:15;-5.80;87.40
10133;DHT22;5106;50.926;7.080;2022-12-18T02:02:41;-5.80;87.50
10133;DHT22;5106;50.926;7.080;2022-12-18T02:05:09;-5.80;87.40
10133;DHT22;5106;50.926;7.080;2022-12-18T02:13:19;-5.80;87.50
10133;DHT22;5106;50.926;7.080;2022-12-18T02:18:45;-5.90;87.20
10133;DHT22;5106;50.926;7.080;2022-12-18T02:27:00;-5.90;87.30
10133;DHT22;5106;50.926;7.080;2022-12-18T02:32:06;-6.00;87.20
10133;DHT22;5106;50.926;7.080;2022-12-18T02:34:34;-6.00;87.20
10133;DHT22;5106;50.926;7.080;2022-12-18T02:37:04;-6.10;87.30
10133;DHT22;5106;50.926;7.080;2022-12-18T02:39:34;-6.10;87.30
10133;DHT22;5106;50.926;7.080;2022-12-18T02:42:01;-6.10;87.20
10133;DHT22;5106;50.926;7.080;2022-12-18T02:44:43;-6.10;87.30
10133;DHT22;5106;50.926;7.080;2022-12-18T02:47:13;-6.10;87.30
10133;DHT22;5106;50.926;7.080;2022-12-18T03:00:39;-6.10;87.20
10133;DHT22;5106;50.926;7.080;2022-12-18T03:06:08;-6.20;87.10
10133;DHT22;5106;50.926;7.080;2022-12-18T03:08:37;-6.20;87.10
10133;DHT22;5106;50.926;7.080;2022-12-18T03:11:12;-6.20;87.20
10133;DHT22;5106;50.926;7.080;2022-12-18T03:16:11;-6.20;87.40
10133;DHT22;5106;50.926;7.080;2022-12-18T03:18:52;-6.10;87.50
10133;DHT22;5106;50.926;7.080;2022-12-18T03:21:23;-6.10;87.50
10133;DHT22;5106;50.926;7.080;2022-12-18T03:23:51;-6.10;87.60
10133;DHT22;5106;50.926;7.080;2022-12-18T03:26:23;-6.10;87.50
10133;DHT22;5106;50.926;7.080;2022-12-18T03:28:53;-6.10;87.50
10133;DHT22;5106;50.926;7.080;2022-12-18T03:31:22;-6.10;87.60
10133;DHT22;5106;50.926;7.080;2022-12-18T03:33:54;-6.10;87.70
10133;DHT22;5106;50.926;7.080;2022-12-18T03:36:20;-6.10;87.60
10133;DHT22;5106;50.926;7.080;2022-12-18T03:38:46;-6.10;87.60
10133;DHT22;5106;50.926;7.080;2022-12-18T03:41:37;-6.10;87.60
10133;DHT22;5106;50.926;7.080;2022-12-18T03:51:53;-6.10;87.60
10133;DHT22;5106;50.926;7.080;2022-12-18T03:54:20;-6.10;87.70
10133;DHT22;5106;50.926;7.080;2022-12-18T03:56:50;-6.10;87.60
10133;DHT22;5106;50.926;7.080;2022-12-18T03:59:19;-6.10;87.60
10133;DHT22;5106;50.926;7.080;2022-12-18T04:01:47;-6.10;87.60
10133;DHT22;5106;50.926;7.080;2022-12-18T04:04:15;-6.10;87.60
10133;DHT22;5106;50.926;7.080;2022-12-18T04:06:42;-6.10;87.70
10133;DHT22;5106;50.926;7.080;2022-12-18T04:09:08;-6.10;87.60
10133;DHT22;5106;50.926;7.080;2022-12-18T04:11:35;-6.10;87.60
10133;DHT22;5106;50.926;7.080;2022-12-18T04:14:00;-6.10;87.60
10133;DHT22;5106;50.926;7.080;2022-12-18T04:16:26;-6.20;87.60
10133;DHT22;5106;50.926;7.080;2022-12-18T04:18:52;-6.10;87.60
10133;DHT22;5106;50.926;7.080;2022-12-18T04:21:18;-6.10;87.70
10133;DHT22;5106;50.926;7.080;2022-12-18T04:23:44;-6.10;87.60
10133;DHT22;5106;50.926;7.080;2022-12-18T04:26:10;-6.20;87.50
10133;DHT22;5106;50.926;7.080;2022-12-18T04:28:36;-6.10;87.60
10133;DHT22;5106;50.926;7.080;2022-12-18T04:31:01;-6.20;87.50
10133;DHT22;5106;50.926;7.080;2022-12-18T04:33:27;-6.30;87.40
10133;DHT22;5106;50.926;7.080;2022-12-18T04:35:53;-6.30;87.40
10133;DHT22;5106;50.926;7.080;2022-12-18T04:38:19;-6.30;87.50
10133;DHT22;5106;50.926;7.080;2022-12-18T04:40:44;-6.30;87.50
10133;DHT22;5106;50.926;7.080;2022-12-18T04:43:10;-6.30;87.40
10133;DHT22;5106;50.926;7.080;2022-12-18T04:45:35;-6.30;87.40
10133;DHT22;5106;50.926;7.080;2022-12-18T04:48:02;-6.30;87.40
10133;DHT22;5106;50.926;7.080;2022-12-18T04:50:28;-6.30;87.50
10133;DHT22;5106;50.926;7.080;2022-12-18T04:52:54;-6.30;87.30
10133;DHT22;5106;50.926;7.080;2022-12-18T04:55:20;-6.40;87.20
10133;DHT22;5106;50.926;7.080;2022-12-18T04:57:45;-6.40;87.20
10133;DHT22;5106;50.926;7.080;2022-12-18T05:00:11;-6.40;87.30
10133;DHT22;5106;50.926;7.080;2022-12-18T05:02:38;-6.30;87.30
10133;DHT22;5106;50.926;7.080;2022-12-18T05:05:04;-6.30;87.30
10133;DHT22;5106;50.926;7.080;2022-12-18T05:07:30;-6.30;87.30
10133;DHT22;5106;50.926;7.080;2022-12-18T05:09:55;-6.30;87.30
10133;DHT22;5106;50.926;7.080;2022-12-18T05:12:24;-6.30;87.40
10133;DHT22;5106;50.926;7.080;2022-12-18T05:14:49;-6.30;87.50
10133;DHT22;5106;50.926;7.080;2022-12-18T05:17:15;-6.30;87.50
10133;DHT22;5106;50.926;7.080;2022-12-18T05:19:40;-6.30;87.50
10133;DHT22;5106;50.926;7.080;2022-12-18T05:22:06;-6.30;87.50
10133;DHT22;5106;50.926;7.080;2022-12-18T05:24:32;-6.30;87.50
10133;DHT22;5106;50.926;7.080;2022-12-18T05:26:57;-6.30;87.60
10133;DHT22;5106;50.926;7.080;2022-12-18T05:29:23;-6.30;87.60
10133;DHT22;5106;50.926;7.080;2022-12-18T05:31:48;-6.30;87.60
10133;DHT22;5106;50.926;7.080;2022-12-18T05:34:14;-6.30;87.60
10133;DHT22;5106;50.926;7.080;2022-12-18T05:36:40;-6.30;87.70
10133;DHT22;5106;50.926;7.080;2022-12-18T05:39:05;-6.30;87.50
10133;DHT22;5106;50.926;7.080;2022-12-18T05:41:31;-6.30;87.50
10133;DHT22;5106;50.926;7.080;2022-12-18T05:43:58;-6.30;87.40
10133;DHT22;5106;50.926;7.080;2022-12-18T05:46:24;-6.30;87.50
10133;DHT22;5106;50.926;7.080;2022-12-18T05:48:50;-6.30;87.60
10133;DHT22;5106;50.926;7.080;2022-12-18T05:51:18;-6.20;87.60
10133;DHT22;5106;50.926;7.080;2022-12-18T05:53:45;-6.30;87.60
10133;DHT22;5106;50.926;7.080;2022-12-18T05:56:13;-6.20;87.60
10133;DHT22;5106;50.926;7.080;2022-12-18T05:58:40;-6.20;87.60
10133;DHT22;5106;50.926;7.080;2022-12-18T06:01:15;-6.20;87.70
10133;DHT22;5106;50.926;7.080;2022-12-18T06:03:41;-6.20;87.60
10133;DHT22;5106;50.926;7.080;2022-12-18T06:06:17;-6.20;87.60
10133;DHT22;5106;50.926;7.080;2022-12-18T06:08:43;-6.30;87.60
10133;DHT22;5106;50.926;7.080;2022-12-18T06:11:09;-6.30;87.60
10133;DHT22;5106;50.926;7.080;2022-12-18T06:13:35;-6.30;87.70
10133;DHT22;5106;50.926;7.080;2022-12-18T06:16:07;-6.20;87.70
10133;DHT22;5106;50.926;7.080;2022-12-18T06:18:33;-6.20;87.70
10133;DHT22;5106;50.926;7.080;2022-12-18T06:20:59;-6.30;87.70
10133;DHT22;5106;50.926;7.080;2022-12-18T06:23:25;-6.20;87.70
10133;DHT22;5106;50.926;7.080;2022-12-18T06:25:51;-6.20;87.70
10133;DHT22;5106;50.926;7.080;2022-12-18T06:28:18;-6.20;87.70
10133;DHT22;5106;50.926;7.080;2022-12-18T06:30:45;-6.20;87.60
10133;DHT22;5106;50.926;7.080;2022-12-18T06:33:10;-6.20;87.60
10133;DHT22;5106;50.926;7.080;2022-12-18T06:35:36;-6.20;87.60
10133;DHT22;5106;50.926;7.080;2022-12-18T06:38:02;-6.20;87.60
10133;DHT22;5106;50.926;7.080;2022-12-18T06:40:28;-6.30;87.90
10133;DHT22;5106;50.926;7.080;2022-12-18T06:42:54;-6.30;87.90
10133;DHT22;5106;50.926;7.080;2022-12-18T06:45:19;-6.30;87.60
10133;DHT22;5106;50.926;7.080;2022-12-18T06:47:45;-6.30;87.60
10133;DHT22;5106;50.926;7.080;2022-12-18T06:50:11;-6.30;87.50
10133;DHT22;5106;50.926;7.080;2022-12-18T06:52:37;-6.30;87.50
10133;DHT22;5106;50.926;7.080;2022-12-18T06:55:04;-6.40;87.40
10133;DHT22;5106;50.926;7.080;2022-12-18T06:57:30;-6.40;87.20
10133;DHT22;5106;50.926;7.080;2022-12-18T06:59:56;-6.50;87.30
10133;DHT22;5106;50.926;7.080;2022-12-18T07:02:21;-6.50;87.30
10133;DHT22;5106;50.926;7.080;2022-12-18T07:04:47;-6.50;87.30
10133;DHT22;5106;50.926;7.080;2022-12-18T07:07:15;-6.60;87.30
10133;DHT22;5106;50.926;7.080;2022-12-18T07:09:41;-6.60;87.40
10133;DHT22;5106;50.926;7.080;2022-12-18T07:12:07;-6.60;87.50
10133;DHT22;5106;50.926;7.080;2022-12-18T07:14:33;-6.60;87.50
10133;DHT22;5106;50.926;7.080;2022-12-18T07:16:59;-6.60;87.50
10133;DHT22;5106;50.926;7.080;2022-12-18T07:19:24;-6.60;87.50
10133;DHT22;5106;50.926;7.080;2022-12-18T07:21:51;-6.70;87.40
10133;DHT22;5106;50.926;7.080;2022-12-18T07:24:16;-6.70;87.30
10133;DHT22;5106;50.926;7.080;2022-12-18T07:26:42;-6.80;87.00
10133;DHT22;5106;50.926;7.080;2022-12-18T07:29:10;-6.80;87.00
10133;DHT22;5106;50.926;7.080;2022-12-18T07:31:36;-6.90;87.00
10133;DHT22;5106;50.926;7.080;2022-12-18T07:34:01;-6.90;87.10
10133;DHT22;5106;50.926;7.080;2022-12-18T07:36:27;-6.90;87.20
10133;DHT22;5106;50.926;7.080;2022-12-18T07:38:52;-6.90;87.20
10133;DHT22;5106;50.926;7.080;2022-12-18T07:41:19;-6.90;87.20
10133;DHT22;5106;50.926;7.080;2022-12-18T07:43:45;-6.90;87.10
10133;DHT22;5106;50.926;7.080;2022-12-18T07:46:11;-6.90;87.00
10133;DHT22;5106;50.926;7.080;2022-12-18T07:48:39;-6.90;86.80
10133;DHT22;5106;50.926;7.080;2022-12-18T07:51:06;-7.00;86.70
10133;DHT22;5106;50.926;7.080;2022-12-18T07:53:33;-6.90;86.90
10133;DHT22;5106;50.926;7.080;2022-12-18T07:56:04;-6.90;87.00
10133;DHT22;5106;50.926;7.080;2022-12-18T07:58:31;-6.90;87.10
10133;DHT22;5106;50.926;7.080;2022-12-18T08:01:11;-6.90;87.00
10133;DHT22;5106;50.926;7.080;2022-12-18T08:03:38;-6.90;87.10
10133;DHT22;5106;50.926;7.080;2022-12-18T08:06:06;-6.90;87.20
10133;DHT22;5106;50.926;7.080;2022-12-18T08:08:32;-6.90;87.40
10133;DHT22;5106;50.926;7.080;2022-12-18T08:10:59;-6.80;87.50
10133;DHT22;5106;50.926;7.080;2022-12-18T08:13:25;-6.70;87.60
10133;DHT22;5106;50.926;7.080;2022-12-18T08:15:58;-6.70;87.70
10133;DHT22;5106;50.926;7.080;2022-12-18T08:18:24;-6.60;87.70
10133;DHT22;5106;50.926;7.080;2022-12-18T08:20:50;-6.50;87.70
10133;DHT22;5106;50.926;7.080;2022-12-18T08:23:16;-6.50;87.60
10133;DHT22;5106;50.926;7.080;2022-12-18T08:25:42;-6.50;87.50
10133;DHT22;5106;50.926;7.080;2022-12-18T08:28:07;-6.50;87.40
10133;DHT22;5106;50.926;7.080;2022-12-18T08:30:33;-6.40;87.50
10133;DHT22;5106;50.926;7.080;2022-12-18T08:32:58;-6.30;87.70
10133;DHT22;5106;50.926;7.080;2022-12-18T08:35:24;-6.20;87.80
10133;DHT22;5106;50.926;7.080;2022-12-18T08:37:50;-6.10;87.90
10133;DHT22;5106;50.926;7.080;2022-12-18T08:40:15;-6.00;87.90
10133;DHT22;5106;50.926;7.080;2022-12-18T08:42:41;-5.90;87.90
10133;DHT22;5106;50.926;7.080;2022-12-18T08:45:25;-5.90;88.00
10133;DHT22;5106;50.926;7.080;2022-12-18T08:47:51;-5.80;88.00
10133;DHT22;5106;50.926;7.080;2022-12-18T08:50:17;-5.70;88.00
10133;DHT22;5106;50.926;7.080;2022-12-18T08:52:42;-5.60;88.10
10133;DHT22;5106;50.926;7.080;2022-12-18T08:55:08;-5.50;88.10
10133;DHT22;5106;50.926;7.080;2022-12-18T08:57:34;-5.40;88.10
10133;DHT22;5106;50.926;7.080;2022-12-18T09:00:00;-5.30;88.20
10133;DHT22;5106;50.926;7.080;2022-12-18T09:02:26;-5.20;88.20
10133;DHT22;5106;50.926;7.080;2022-12-18T09:04:51;-5.10;88.20
10133;DHT22;5106;50.926;7.080;2022-12-18T09:07:17;-5.00;88.20
10133;DHT22;5106;50.926;7.080;2022-12-18T09:09:42;-4.90;88.20
10133;DHT22;5106;50.926;7.080;2022-12-18T09:12:08;-4.80;88.20
10133;DHT22;5106;50.926;7.080;2022-12-18T09:14:34;-4.70;88.30
10133;DHT22;5106;50.926;7.080;2022-12-18T09:16:59;-4.50;88.30
10133;DHT22;5106;50.926;7.080;2022-12-18T09:19:25;-4.40;88.20
10133;DHT22;5106;50.926;7.080;2022-12-18T09:21:51;-4.40;88.00
10133;DHT22;5106;50.926;7.080;2022-12-18T09:24:16;-4.20;88.00
10133;DHT22;5106;50.926;7.080;2022-12-18T09:26:42;-4.20;87.90
10133;DHT22;5106;50.926;7.080;2022-12-18T09:29:08;-4.10;87.70
10133;DHT22;5106;50.926;7.080;2022-12-18T09:31:35;-4.00;87.50
10133;DHT22;5106;50.926;7.080;2022-12-18T09:34:00;-3.90;87.40
10133;DHT22;5106;50.926;7.080;2022-12-18T09:36:26;-3.80;87.30
10133;DHT22;5106;50.926;7.080;2022-12-18T09:38:52;-3.70;87.00
10133;DHT22;5106;50.926;7.080;2022-12-18T09:44:00;-3.60;86.70
10133;DHT22;5106;50.926;7.080;2022-12-18T09:46:39;-3.40;86.50
10133;DHT22;5106;50.926;7.080;2022-12-18T09:49:12;-3.30;86.40
10133;DHT22;5106;50.926;7.080;2022-12-18T09:54:20;-3.10;85.80
10133;DHT22;5106;50.926;7.080;2022-12-18T09:56:47;-3.00;85.50
10133;DHT22;5106;50.926;7.080;2022-12-18T09:59:21;-2.90;85.30
10133;DHT22;5106;50.926;7.080;2022-12-18T10:01:48;-2.70;84.80
10133;DHT22;5106;50.926;7.080;2022-12-18T10:04:13;-2.60;84.80
10133;DHT22;5106;50.926;7.080;2022-12-18T10:07:02;-2.50;84.50
10133;DHT22;5106;50.926;7.080;2022-12-18T10:10:04;-2.40;84.00
10133;DHT22;5106;50.926;7.080;2022-12-18T10:12:55;-2.30;83.60
10133;DHT22;5106;50.926;7.080;2022-12-18T10:15:33;-2.20;83.30
10133;DHT22;5106;50.926;7.080;2022-12-18T10:20:49;-2.00;82.60
10133;DHT22;5106;50.926;7.080;2022-12-18T10:23:37;-1.90;81.80
10133;DHT22;5106;50.926;7.080;2022-12-18T10:26:07;-1.80;82.30
10133;DHT22;5106;50.926;7.080;2022-12-18T10:28:37;-1.80;82.60
10133;DHT22;5106;50.926;7.080;2022-12-18T10:31:24;-1.70;82.00
10133;DHT22;5106;50.926;7.080;2022-12-18T10:33:51;-1.60;81.50
10133;DHT22;5106;50.926;7.080;2022-12-18T10:36:18;-1.60;81.10
10133;DHT22;5106;50.926;7.080;2022-12-18T10:38:44;-1.50;80.70
10133;DHT22;5106;50.926;7.080;2022-12-18T10:43:47;-1.30;80.50
10133;DHT22;5106;50.926;7.080;2022-12-18T10:46:17;-1.30;80.50
10133;DHT22;5106;50.926;7.080;2022-12-18T10:48:53;-1.20;80.50
10133;DHT22;5106;50.926;7.080;2022-12-18T10:51:27;-1.20;80.60
10133;DHT22;5106;50.926;7.080;2022-12-18T10:54:05;-1.10;80.20
10133;DHT22;5106;50.926;7.080;2022-12-18T10:56:34;-1.10;80.30
10133;DHT22;5106;50.926;7.080;2022-12-18T10:59:08;-1.00;80.70
10133;DHT22;5106;50.926;7.080;2022-12-18T11:04:23;-0.90;79.80
10133;DHT22;5106;50.926;7.080;2022-12-18T11:07:00;-0.90;80.00
10133;DHT22;5106;50.926;7.080;2022-12-18T11:12:04;-0.80;79.40
10133;DHT22;5106;50.926;7.080;2022-12-18T11:14:52;-0.80;79.30
10133;DHT22;5106;50.926;7.080;2022-12-18T11:17:38;-0.70;79.30
10133;DHT22;5106;50.926;7.080;2022-12-18T11:20:07;-0.70;79.20
10133;DHT22;5106;50.926;7.080;2022-12-18T11:22:54;-0.60;79.30
10133;DHT22;5106;50.926;7.080;2022-12-18T11:25:21;-0.60;78.90
10133;DHT22;5106;50.926;7.080;2022-12-18T11:27:56;-0.60;78.80
10133;DHT22;5106;50.926;7.080;2022-12-18T11:30:34;-0.60;78.80
10133;DHT22;5106;50.926;7.080;2022-12-18T11:33:19;-0.60;78.60
10133;DHT22;5106;50.926;7.080;2022-12-18T11:38:18;-0.60;78.70
10133;DHT22;5106;50.926;7.080;2022-12-18T11:40:49;-0.70;78.90
10133;DHT22;5106;50.926;7.080;2022-12-18T11:46:49;-0.60;79.50
10133;DHT22;5106;50.926;7.080;2022-12-18T11:49:26;-0.60;79.10
10133;DHT22;5106;50.926;7.080;2022-12-18T11:52:00;-0.70;78.90
10133;DHT22;5106;50.926;7.080;2022-12-18T11:54:27;-0.70;78.70
10133;DHT22;5106;50.926;7.080;2022-12-18T11:57:02;-0.70;79.50
10133;DHT22;5106;50.926;7.080;2022-12-18T12:02:17;-0.60;79.50
10133;DHT22;5106;50.926;7.080;2022-12-18T12:15:53;-0.60;79.30
10133;DHT22;5106;50.926;7.080;2022-12-18T12:21:43;-0.60;79.10
10133;DHT22;5106;50.926;7.080;2022-12-18T12:24:44;-0.70;78.80
10133;DHT22;5106;50.926;7.080;2022-12-18T12:27:26;-0.70;78.90
10133;DHT22;5106;50.926;7.080;2022-12-18T12:30:10;-0.70;78.90
10133;DHT22;5106;50.926;7.080;2022-12-18T12:40:27;-0.80;79.40
10133;DHT22;5106;50.926;7.080;2022-12-18T12:42:59;-0.80;79.40
10133;DHT22;5106;50.926;7.080;2022-12-18T12:46:00;-0.80;79.10
10133;DHT22;5106;50.926;7.080;2022-12-18T12:50:52;-0.80;79.60
10133;DHT22;5106;50.926;7.080;2022-12-18T12:53:32;-0.70;79.60
10133;DHT22;5106;50.926;7.080;2022-12-18T12:56:01;-0.70;79.60
10133;DHT22;5106;50.926;7.080;2022-12-18T13:01:32;-0.70;79.00
10133;DHT22;5106;50.926;7.080;2022-12-18T13:06:50;-0.70;79.00
10133;DHT22;5106;50.926;7.080;2022-12-18T13:09:19;-0.70;79.20
10133;DHT22;5106;50.926;7.080;2022-12-18T13:11:46;-0.70;79.30
10133;DHT22;5106;50.926;7.080;2022-12-18T13:14:36;-0.70;79.20
10133;DHT22;5106;50.926;7.080;2022-12-18T13:20:04;-0.80;79.00
10133;DHT22;5106;50.926;7.080;2022-12-18T13:22:47;-0.70;79.30
10133;DHT22;5106;50.926;7.080;2022-12-18T13:25:34;-0.70;79.20
10133;DHT22;5106;50.926;7.080;2022-12-18T13:35:55;-0.80;78.80
10133;DHT22;5106;50.926;7.080;2022-12-18T13:41:23;-0.80;79.10
10133;DHT22;5106;50.926;7.080;2022-12-18T13:43:56;-0.90;79.00
10133;DHT22;5106;50.926;7.080;2022-12-18T13:46:45;-0.90;79.10
10133;DHT22;5106;50.926;7.080;2022-12-18T13:51:44;-0.90;79.10
10133;DHT22;5106;50.926;7.080;2022-12-18T13:54:36;-0.90;79.10
10133;DHT22;5106;50.926;7.080;2022-12-18T13:57:03;-0.90;79.30
10133;DHT22;5106;50.926;7.080;2022-12-18T13:59:37;-1.00;79.20
10133;DHT22;5106;50.926;7.080;2022-12-18T14:02:18;-1.00;79.40
10133;DHT22;5106;50.926;7.080;2022-12-18T14:04:47;-1.00;79.30
10133;DHT22;5106;50.926;7.080;2022-12-18T14:07:28;-1.00;79.40
10133;DHT22;5106;50.926;7.080;2022-12-18T14:09:58;-1.10;79.30
10133;DHT22;5106;50.926;7.080;2022-12-18T14:12:29;-1.10;79.50
10133;DHT22;5106;50.926;7.080;2022-12-18T14:18:01;-1.10;79.20
10133;DHT22;5106;50.926;7.080;2022-12-18T14:20:29;-1.20;79.40
10133;DHT22;5106;50.926;7.080;2022-12-18T14:22:56;-1.20;79.60
10133;DHT22;5106;50.926;7.080;2022-12-18T14:25:27;-1.20;79.40
10133;DHT22;5106;50.926;7.080;2022-12-18T14:28:07;-1.20;79.60
10133;DHT22;5106;50.926;7.080;2022-12-18T14:30:42;-1.30;79.60
10133;DHT22;5106;50.926;7.080;2022-12-18T14:35:36;-1.30;79.90
10133;DHT22;5106;50.926;7.080;2022-12-18T14:41:00;-1.30;79.80
10133;DHT22;5106;50.926;7.080;2022-12-18T14:43:28;-1.30;80.10
10133;DHT22;5106;50.926;7.080;2022-12-18T14:45:54;-1.30;79.80
10133;DHT22;5106;50.926;7.080;2022-12-18T14:51:04;-1.30;79.80
10133;DHT22;5106;50.926;7.080;2022-12-18T14:53:42;-1.30;79.90
10133;DHT22;5106;50.926;7.080;2022-12-18T14:56:18;-1.40;79.80
10133;DHT22;5106;50.926;7.080;2022-12-18T14:59:00;-1.40;80.00
10133;DHT22;5106;50.926;7.080;2022-12-18T15:01:28;-1.40;79.90
10133;DHT22;5106;50.926;7.080;2022-12-18T15:03:56;-1.40;80.10
10133;DHT22;5106;50.926;7.080;2022-12-18T15:06:31;-1.50;79.90
10133;DHT22;5106;50.926;7.080;2022-12-18T15:08:59;-1.50;80.10
10133;DHT22;5106;50.926;7.080;2022-12-18T15:11:32;-1.50;80.30
10133;DHT22;5106;50.926;7.080;2022-12-18T15:13:58;-1.50;80.50
10133;DHT22;5106;50.926;7.080;2022-12-18T15:16:26;-1.50;80.30
10133;DHT22;5106;50.926;7.080;2022-12-18T15:18:52;-1.60;80.40
10133;DHT22;5106;50.926;7.080;2022-12-18T15:21:19;-1.60;80.30
10133;DHT22;5106;50.926;7.080;2022-12-18T15:23:50;-1.60;80.20
10133;DHT22;5106;50.926;7.080;2022-12-18T15:26:18;-1.60;80.30
10133;DHT22;5106;50.926;7.080;2022-12-18T15:28:54;-1.60;80.30
10133;DHT22;5106;50.926;7.080;2022-12-18T15:36:22;-1.60;80.70
10133;DHT22;5106;50.926;7.080;2022-12-18T15:38:49;-1.60;80.70
10133;DHT22;5106;50.926;7.080;2022-12-18T15:41:16;-1.60;80.90
10133;DHT22;5106;50.926;7.080;2022-12-18T15:43:42;-1.60;80.50
10133;DHT22;5106;50.926;7.080;2022-12-18T15:46:17;-1.60;80.50
10133;DHT22;5106;50.926;7.080;2022-12-18T15:48:48;-1.70;80.70
10133;DHT22;5106;50.926;7.080;2022-12-18T15:51:26;-1.70;80.90
10133;DHT22;5106;50.926;7.080;2022-12-18T15:53:55;-1.70;81.10
10133;DHT22;5106;50.926;7.080;2022-12-18T15:56:21;-1.70;81.20
10133;DHT22;5106;50.926;7.080;2022-12-18T15:59:11;-1.70;81.30
10133;DHT22;5106;50.926;7.080;2022-12-18T16:01:37;-1.80;81.40
10133;DHT22;5106;50.926;7.080;2022-12-18T16:04:03;-1.80;81.30
10133;DHT22;5106;50.926;7.080;2022-12-18T16:06:29;-1.80;81.40
10133;DHT22;5106;50.926;7.080;2022-12-18T16:08:54;-1.80;81.50
10133;DHT22;5106;50.926;7.080;2022-12-18T16:11:23;-1.80;81.60
10133;DHT22;5106;50.926;7.080;2022-12-18T16:14:19;-1.80;81.70
10133;DHT22;5106;50.926;7.080;2022-12-18T16:16:46;-1.80;81.60
10133;DHT22;5106;50.926;7.080;2022-12-18T16:19:12;-1.80;81.80
10133;DHT22;5106;50.926;7.080;2022-12-18T16:21:38;-1.80;81.70
10133;DHT22;5106;50.926;7.080;2022-12-18T16:24:04;-1.80;81.80
10133;DHT22;5106;50.926;7.080;2022-12-18T16:26:30;-1.80;82.00
10133;DHT22;5106;50.926;7.080;2022-12-18T16:28:58;-1.80;82.10
10133;DHT22;5106;50.926;7.080;2022-12-18T16:31:23;-1.80;82.00
10133;DHT22;5106;50.926;7.080;2022-12-18T16:33:49;-1.90;82.00
10133;DHT22;5106;50.926;7.080;2022-12-18T16:36:15;-1.90;82.10
10133;DHT22;5106;50.926;7.080;2022-12-18T16:38:40;-1.90;82.20
10133;DHT22;5106;50.926;7.080;2022-12-18T16:41:18;-1.90;82.40
10133;DHT22;5106;50.926;7.080;2022-12-18T16:43:56;-1.90;82.30
10133;DHT22;5106;50.926;7.080;2022-12-18T16:46:22;-1.90;82.40
10133;DHT22;5106;50.926;7.080;2022-12-18T16:48:48;-1.90;82.40
10133;DHT22;5106;50.926;7.080;2022-12-18T16:51:14;-1.90;82.50
10133;DHT22;5106;50.926;7.080;2022-12-18T16:53:40;-1.90;82.60
10133;DHT22;5106;50.926;7.080;2022-12-18T16:56:06;-1.90;82.70
10133;DHT22;5106;50.926;7.080;2022-12-18T16:58:31;-2.00;82.60
10133;DHT22;5106;50.926;7.080;2022-12-18T17:00:57;-2.00;82.60
10133;DHT22;5106;50.926;7.080;2022-12-18T17:03:23;-2.00;82.70
10133;DHT22;5106;50.926;7.080;2022-12-18T17:05:48;-2.00;82.80
10133;DHT22;5106;50.926;7.080;2022-12-18T17:08:14;-2.00;82.70
10133;DHT22;5106;50.926;7.080;2022-12-18T17:10:39;-2.00;82.60
10133;DHT22;5106;50.926;7.080;2022-12-18T17:13:05;-2.00;82.80
10133;DHT22;5106;50.926;7.080;2022-12-18T17:15:34;-2.10;82.80
10133;DHT22;5106;50.926;7.080;2022-12-18T17:18:00;-2.10;82.90
10133;DHT22;5106;50.926;7.080;2022-12-18T17:20:26;-2.10;83.00
10133;DHT22;5106;50.926;7.080;2022-12-18T17:22:52;-2.10;83.00
10133;DHT22;5106;50.926;7.080;2022-12-18T17:25:17;-2.10;83.00
10133;DHT22;5106;50.926;7.080;2022-12-18T17:27:43;-2.10;82.80
10133;DHT22;5106;50.926;7.080;2022-12-18T17:30:09;-2.10;82.80
10133;DHT22;5106;50.926;7.080;2022-12-18T17:32:35;-2.10;82.90
10133;DHT22;5106;50.926;7.080;2022-12-18T17:35:00;-2.10;82.80
10133;DHT22;5106;50.926;7.080;2022-12-18T17:37:26;-2.10;82.80
10133;DHT22;5106;50.926;7.080;2022-12-18T17:39:52;-2.10;82.80
10133;DHT22;5106;50.926;7.080;2022-12-18T17:42:18;-2.10;82.90
10133;DHT22;5106;50.926;7.080;2022-12-18T17:44:44;-2.10;83.10
10133;DHT22;5106;50.926;7.080;2022-12-18T17:47:11;-2.20;83.10
10133;DHT22;5106;50.926;7.080;2022-12-18T17:49:37;-2.10;83.30
10133;DHT22;5106;50.926;7.080;2022-12-18T17:52:03;-2.10;82.90
10133;DHT22;5106;50.926;7.080;2022-12-18T17:54:29;-2.10;83.10
10133;DHT22;5106;50.926;7.080;2022-12-18T17:56:55;-2.10;83.10
10133;DHT22;5106;50.926;7.080;2022-12-18T17:59:20;-2.10;83.00
10133;DHT22;5106;50.926;7.080;2022-12-18T18:01:47;-2.10;82.80
10133;DHT22;5106;50.926;7.080;2022-12-18T18:04:13;-2.10;82.80
10133;DHT22;5106;50.926;7.080;2022-12-18T18:06:39;-2.20;82.90
10133;DHT22;5106;50.926;7.080;2022-12-18T18:09:05;-2.20;83.00